Time;durP1;ratioP1;P1;durP2;ratioP2;P2;SDS_P1;SDS_P2;PMS_P1;PMS_P2;Temp;Humidity;BMP_temperature;BMP_pressure;BME280_temperature;BME280_humidity;BME280_pressure;Samples;Min_cycle;Max_cycle;Signal;HPM_P1;HPM_P2
2021/10/26 00:00:17;;;;;;;11.88;5.88;;;11.90;88.60;;;;;;6256353;28;20122;-82
2021/10/26 00:03:19;;;;;;;11.80;5.88;;;11.90;88.50;;;;;;6256700;28;20132;-83
2021/10/26 00:06:21;;;;;;;10.65;5.82;;;11.90;88.50;;;;;;6256717;28;20041;-81
2021/10/26 00:09:23;;;;;;;10.38;6.05;;;11.90;88.50;;;;;;6256343;28;20089;-82
2021/10/26 00:12:27;;;;;;;14.90;6.25;;;11.90;88.40;;;;;;6256770;28;20483;-83
2021/10/26 00:15:29;;;;;;;16.48;6.18;;;12.00;88.40;;;;;;6256875;28;20058;-82
2021/10/26 00:18:31;;;;;;;14.88;6.05;;;12.00;88.20;;;;;;6255744;28;20038;-83
2021/10/26 00:21:34;;;;;;;10.73;5.68;;;12.00;88.20;;;;;;6255212;28;20053;-82
2021/10/26 00:24:35;;;;;;;7.35;5.13;;;12.00;88.10;;;;;;6262484;28;20419;-83
2021/10/26 00:27:39;;;;;;;13.30;5.93;;;12.00;88.20;;;;;;6264964;28;20080;-83
2021/10/26 00:30:40;;;;;;;11.38;6.45;;;12.00;88.20;;;;;;6256994;28;20104;-83
2021/10/26 00:33:42;;;;;;;9.23;6.00;;;12.00;88.20;;;;;;6252198;28;20055;-83
2021/10/26 00:36:44;;;;;;;11.10;5.30;;;12.00;88.30;;;;;;6256750;28;20049;-82
2021/10/26 00:39:46;;;;;;;17.50;6.15;;;12.00;88.30;;;;;;6255758;28;20191;-82
2021/10/26 00:42:49;;;;;;;21.13;7.57;;;12.00;89.10;;;;;;6256272;28;20418;-83
2021/10/26 00:45:51;;;;;;;13.60;5.50;;;12.00;88.50;;;;;;6255456;28;20108;-84
2021/10/26 00:48:53;;;;;;;10.15;5.75;;;12.10;88.60;;;;;;6256034;28;20054;-84
2021/10/26 00:51:56;;;;;;;10.77;5.88;;;12.10;88.60;;;;;;6256197;28;20399;-83
2021/10/26 00:54:59;;;;;;;11.90;5.85;;;12.10;89.20;;;;;;6280897;28;20048;-84
2021/10/26 00:58:02;;;;;;;14.07;5.70;;;12.10;88.60;;;;;;6281190;28;20060;-82
2021/10/26 01:01:04;;;;;;;11.82;5.97;;;12.10;88.60;;;;;;6279113;28;20048;-82
2021/10/26 01:04:05;;;;;;;14.38;6.72;;;12.10;88.60;;;;;;6280039;28;20501;-82
2021/10/26 01:07:07;;;;;;;12.60;5.90;;;12.10;88.60;;;;;;6279994;28;20049;-83
2021/10/26 01:10:10;;;;;;;11.93;5.55;;;12.10;88.60;;;;;;6279367;28;20049;-83
2021/10/26 01:13:13;;;;;;;9.82;5.72;;;12.10;88.60;;;;;;6279254;28;20521;-81
2021/10/26 01:16:15;;;;;;;7.95;5.05;;;12.10;88.70;;;;;;6276788;28;20052;-83
2021/10/26 01:19:17;;;;;;;11.60;4.78;;;12.10;88.60;;;;;;6275544;28;20053;-82
2021/10/26 01:22:22;;;;;;;12.20;5.53;;;12.10;88.60;;;;;;6275419;28;20132;-83
2021/10/26 01:25:23;;;;;;;7.32;5.40;;;12.10;88.60;;;;;;6276085;28;20055;-83
2021/10/26 01:28:25;;;;;;;7.93;5.63;;;12.10;88.60;;;;;;6273081;28;20055;-83
2021/10/26 01:31:27;;;;;;;10.40;4.90;;;12.10;88.60;;;;;;6275285;28;20047;-84
2021/10/26 01:34:29;;;;;;;14.82;5.78;;;12.10;88.70;;;;;;6278883;28;20051;-83
2021/10/26 01:37:33;;;;;;;8.90;5.63;;;12.10;88.80;;;;;;6283000;28;20060;-82
2021/10/26 01:40:36;;;;;;;8.50;5.43;;;12.10;88.90;;;;;;6276776;28;20052;-83
2021/10/26 01:43:38;;;;;;;13.07;6.75;;;12.10;88.90;;;;;;6278112;28;20049;-83
2021/10/26 01:46:40;;;;;;;12.98;5.65;;;12.00;89.00;;;;;;6280209;28;20049;-83
2021/10/26 01:49:43;;;;;;;11.63;5.13;;;12.00;89.00;;;;;;6276328;28;20122;-82
2021/10/26 01:52:46;;;;;;;8.75;5.03;;;12.10;89.00;;;;;;6275132;28;20049;-82
2021/10/26 01:55:48;;;;;;;16.52;6.90;;;12.00;89.00;;;;;;6276537;28;20056;-83
2021/10/26 01:58:50;;;;;;;11.98;5.53;;;11.90;89.10;;;;;;6276018;28;20075;-83
2021/10/26 02:01:52;;;;;;;9.18;5.75;;;11.90;89.30;;;;;;6277150;28;20063;-82
2021/10/26 02:04:54;;;;;;;13.38;5.90;;;11.90;89.50;;;;;;6277419;28;20053;-82
2021/10/26 02:07:57;;;;;;;12.93;5.65;;;11.90;89.60;;;;;;6277817;28;20056;-81
2021/10/26 02:10:59;;;;;;;9.07;5.72;;;11.80;89.70;;;;;;6279383;28;20044;-80
2021/10/26 02:14:01;;;;;;;8.95;5.60;;;11.80;89.80;;;;;;6279838;28;20545;-78
2021/10/26 02:17:05;;;;;;;9.25;5.50;;;11.80;89.80;;;;;;6277150;28;20053;-82
2021/10/26 02:20:08;;;;;;;11.82;7.22;;;11.80;89.90;;;;;;6277237;28;20135;-82
2021/10/26 02:23:12;;;;;;;11.48;5.97;;;11.80;90.00;;;;;;6279037;28;20487;-82
2021/10/26 02:26:14;;;;;;;9.30;5.45;;;11.80;90.00;;;;;;6281861;28;20141;-83
2021/10/26 02:29:16;;;;;;;10.05;6.60;;;11.80;90.00;;;;;;6277603;28;20049;-82
2021/10/26 02:32:17;;;;;;;10.15;6.18;;;11.80;90.00;;;;;;6280860;28;20053;-81
2021/10/26 02:35:19;;;;;;;8.60;5.20;;;11.80;89.90;;;;;;6279267;28;20072;-81
2021/10/26 02:38:23;;;;;;;10.55;5.63;;;11.80;89.90;;;;;;6279469;28;20170;-82
2021/10/26 02:41:25;;;;;;;11.85;5.65;;;11.80;89.90;;;;;;6279791;28;20049;-80
2021/10/26 02:44:27;;;;;;;13.38;6.35;;;11.80;89.90;;;;;;6283499;28;20509;-83
2021/10/26 02:47:29;;;;;;;14.30;6.10;;;11.80;89.90;;;;;;6282487;28;20053;-83
2021/10/26 02:50:31;;;;;;;9.50;5.80;;;11.80;89.90;;;;;;6280808;28;20045;-81
2021/10/26 02:53:35;;;;;;;10.73;5.65;;;11.80;89.90;;;;;;6281893;28;20140;-82
2021/10/26 02:56:38;;;;;;;8.18;5.25;;;11.80;89.90;;;;;;6282114;28;20076;-81
2021/10/26 02:59:39;;;;;;;10.15;5.30;;;11.80;89.80;;;;;;6283772;28;20053;-80
2021/10/26 03:02:42;;;;;;;13.55;5.90;;;11.80;89.80;;;;;;6283377;28;20049;-81
2021/10/26 03:05:43;;;;;;;11.82;5.70;;;11.80;89.80;;;;;;6280861;28;20068;-83
2021/10/26 03:08:47;;;;;;;13.32;6.15;;;11.80;89.80;;;;;;6281402;28;20498;-82
2021/10/26 03:11:48;;;;;;;11.13;5.80;;;11.80;89.80;;;;;;6277712;28;20049;-83
2021/10/26 03:14:51;;;;;;;9.88;5.75;;;11.90;89.80;;;;;;6274453;28;20524;-82
2021/10/26 03:17:52;;;;;;;11.27;5.50;;;11.80;89.80;;;;;;6276027;28;20561;-82
2021/10/26 03:20:57;;;;;;;10.18;5.65;;;11.80;89.80;;;;;;6273908;28;20131;-83
2021/10/26 03:24:00;;;;;;;11.25;5.00;;;11.90;89.80;;;;;;6274892;28;20052;-82
2021/10/26 03:27:02;;;;;;;11.70;5.30;;;11.90;89.70;;;;;;6280552;28;20570;-83
2021/10/26 03:30:05;;;;;;;9.13;5.88;;;11.90;89.70;;;;;;6278546;28;20505;-83
2021/10/26 03:33:07;;;;;;;9.75;5.15;;;11.90;89.70;;;;;;6279410;28;20051;-83
2021/10/26 03:36:08;;;;;;;10.35;5.07;;;11.90;89.80;;;;;;6278746;28;20078;-79
2021/10/26 03:39:11;;;;;;;8.88;5.25;;;11.90;89.50;;;;;;6281438;28;20045;-82
2021/10/26 03:42:13;;;;;;;13.63;5.97;;;11.90;89.60;;;;;;6283462;28;20088;-78
2021/10/26 03:45:15;;;;;;;9.65;4.95;;;12.00;89.60;;;;;;6281981;28;20049;-82
2021/10/26 03:48:17;;;;;;;9.82;4.40;;;12.00;89.50;;;;;;6278347;28;20044;-82
2021/10/26 03:51:18;;;;;;;7.93;4.50;;;12.00;89.30;;;;;;6277876;28;20048;-83
2021/10/26 03:54:22;;;;;;;11.30;5.60;;;12.00;89.30;;;;;;6278867;28;20528;-80
2021/10/26 03:57:23;;;;;;;7.65;3.90;;;12.00;89.80;;;;;;6277779;28;20071;-80
2021/10/26 04:00:25;;;;;;;9.18;4.18;;;12.00;89.20;;;;;;6278287;28;20573;-83
2021/10/26 04:03:27;;;;;;;9.05;4.47;;;12.00;89.10;;;;;;6278822;28;20048;-83
2021/10/26 04:06:30;;;;;;;5.97;3.90;;;12.00;89.00;;;;;;6278425;28;20052;-80
2021/10/26 04:09:44;;;;;;;11.73;4.43;;;12.00;89.00;;;;;;6277660;28;20129;-83
2021/10/26 04:12:46;;;;;;;8.00;4.25;;;12.00;89.00;;;;;;6277953;28;20048;-81
2021/10/26 04:15:49;;;;;;;8.70;4.28;;;11.90;89.60;;;;;;6281356;28;20160;-81
2021/10/26 04:18:50;;;;;;;17.40;4.93;;;11.90;89.10;;;;;;6280514;28;20131;-81
2021/10/26 04:21:52;;;;;;;8.95;4.68;;;11.90;89.20;;;;;;6281001;28;20517;-82
2021/10/26 04:24:55;;;;;;;8.75;4.88;;;11.90;89.30;;;;;;6282513;28;20045;-81
2021/10/26 04:27:57;;;;;;;9.98;4.65;;;11.90;89.40;;;;;;6278452;28;20052;-83
2021/10/26 04:31:00;;;;;;;6.60;4.28;;;11.90;89.40;;;;;;6277511;28;20045;-82
2021/10/26 04:34:02;;;;;;;7.20;4.75;;;11.90;89.40;;;;;;6282571;28;20108;-82
2021/10/26 04:37:06;;;;;;;11.80;5.57;;;11.80;89.40;;;;;;6280805;28;20140;-82
2021/10/26 04:40:10;;;;;;;11.02;4.88;;;11.80;89.50;;;;;;6278819;28;20096;-80
2021/10/26 04:43:12;;;;;;;15.38;5.97;;;11.70;89.60;;;;;;6279652;28;20104;-82
2021/10/26 04:46:14;;;;;;;12.73;5.28;;;11.70;89.80;;;;;;6280593;28;20053;-82
2021/10/26 04:49:15;;;;;;;8.63;4.82;;;11.70;89.90;;;;;;6276454;28;20045;-83
2021/10/26 04:52:17;;;;;;;16.35;5.47;;;11.60;90.00;;;;;;6279056;28;20045;-82
2021/10/26 04:55:20;;;;;;;13.13;5.47;;;11.50;90.00;;;;;;6280848;28;20044;-82
2021/10/26 04:58:22;;;;;;;11.55;6.43;;;11.40;90.10;;;;;;6281870;28;20045;-79
2021/10/26 05:01:24;;;;;;;15.13;5.28;;;11.40;90.10;;;;;;6280343;28;20045;-82
2021/10/26 05:04:25;;;;;;;12.00;5.95;;;11.30;90.30;;;;;;6281554;28;20056;-82
2021/10/26 05:07:27;;;;;;;18.55;7.43;;;11.20;90.30;;;;;;6281315;28;20490;-79
2021/10/26 05:10:30;;;;;;;7.80;5.30;;;11.20;90.40;;;;;;6280421;28;20064;-81
2021/10/26 05:13:32;;;;;;;12.13;5.32;;;11.20;90.50;;;;;;6279353;28;20104;-83
2021/10/26 05:16:34;;;;;;;15.00;7.07;;;11.10;90.50;;;;;;6278751;28;20136;-79
2021/10/26 05:19:36;;;;;;;20.40;11.23;;;11.10;90.60;;;;;;6278639;28;20064;-82
2021/10/26 05:22:38;;;;;;;55.83;36.00;;;11.00;90.70;;;;;;6276216;28;20037;-84
2021/10/26 05:25:42;;;;;;;54.00;35.15;;;11.00;90.70;;;;;;6277718;28;20045;-81
2021/10/26 05:28:44;;;;;;;19.35;11.00;;;11.00;90.80;;;;;;6276919;28;20056;-83
2021/10/26 05:31:46;;;;;;;19.75;13.30;;;11.10;91.20;;;;;;6276804;28;20049;-81
2021/10/26 05:34:47;;;;;;;23.17;13.63;;;11.10;90.90;;;;;;6276927;28;20048;-80
2021/10/26 05:37:49;;;;;;;31.83;18.83;;;11.10;91.00;;;;;;6277324;28;20051;-82
2021/10/26 05:40:52;;;;;;;22.58;15.80;;;11.20;90.90;;;;;;6276303;28;20051;-81
2021/10/26 05:43:54;;;;;;;19.60;13.00;;;11.30;91.00;;;;;;6277282;28;20063;-81
2021/10/26 05:46:56;;;;;;;28.65;17.00;;;11.30;91.00;;;;;;6281346;28;20060;-82
2021/10/26 05:49:58;;;;;;;18.98;9.18;;;11.30;91.00;;;;;;6278529;28;20433;-79
2021/10/26 05:52:59;;;;;;;15.63;7.00;;;11.30;90.90;;;;;;6278174;28;20045;-80
2021/10/26 05:56:04;;;;;;;8.77;5.82;;;11.30;90.90;;;;;;6277874;28;20048;-80
2021/10/26 05:59:06;;;;;;;12.55;6.70;;;11.30;91.00;;;;;;6278377;28;20084;-81
2021/10/26 06:02:08;;;;;;;27.83;14.43;;;11.30;91.00;;;;;;6277814;28;20045;-82
2021/10/26 06:05:11;;;;;;;18.95;9.82;;;11.20;91.00;;;;;;6278634;28;20068;-80
2021/10/26 06:08:13;;;;;;;17.63;8.07;;;11.30;91.10;;;;;;6277514;28;20585;-82
2021/10/26 06:11:19;;;;;;;12.43;7.80;;;11.20;91.00;;;;;;6276113;28;20417;-82
2021/10/26 06:14:21;;;;;;;12.88;7.35;;;11.30;91.10;;;;;;6275086;28;20071;-82
2021/10/26 06:17:24;;;;;;;11.45;6.53;;;11.30;91.10;;;;;;6277873;28;20426;-83
2021/10/26 06:20:26;;;;;;;17.30;6.72;;;11.30;91.00;;;;;;6276179;28;20502;-80
2021/10/26 06:23:29;;;;;;;12.20;6.13;;;11.40;91.10;;;;;;6277244;28;20060;-83
2021/10/26 06:26:33;;;;;;;12.23;6.38;;;11.30;91.00;;;;;;6276585;28;20506;-84
2021/10/26 06:29:35;;;;;;;9.30;5.78;;;11.30;90.90;;;;;;6277189;28;20049;-86
2021/10/26 06:32:40;;;;;;;75.82;31.65;;;11.20;90.90;;;;;;6279530;28;20102;-83
2021/10/26 06:35:42;;;;;;;19.00;8.98;;;11.20;91.00;;;;;;6280692;28;20443;-84
2021/10/26 06:38:44;;;;;;;13.05;6.22;;;11.20;91.00;;;;;;6280406;28;20045;-84
2021/10/26 06:41:47;;;;;;;10.55;5.97;;;11.10;91.00;;;;;;6273922;28;20049;-83
2021/10/26 06:44:49;;;;;;;33.53;16.58;;;11.10;91.00;;;;;;6273351;28;20051;-79
2021/10/26 06:47:51;;;;;;;18.60;10.30;;;11.20;91.00;;;;;;6273973;28;20048;-83
2021/10/26 06:50:53;;;;;;;37.50;19.52;;;11.10;91.10;;;;;;6274081;28;20045;-82
2021/10/26 06:53:54;;;;;;;23.52;13.48;;;11.10;91.20;;;;;;6274679;28;20080;-82
2021/10/26 06:56:58;;;;;;;12.50;8.90;;;11.20;91.30;;;;;;6251334;28;20045;-82
2021/10/26 07:00:00;;;;;;;20.45;10.77;;;11.30;91.30;;;;;;6250683;28;20050;-82
2021/10/26 07:03:04;;;;;;;15.68;8.60;;;11.50;91.30;;;;;;6253888;28;20140;-82
2021/10/26 07:06:05;;;;;;;16.20;7.35;;;11.60;91.10;;;;;;6254415;28;20072;-82
2021/10/26 07:09:07;;;;;;;15.75;7.53;;;11.60;91.00;;;;;;6255513;28;20060;-81
2021/10/26 07:12:10;;;;;;;16.15;7.68;;;11.70;91.00;;;;;;6257764;28;20044;-81
2021/10/26 07:15:14;;;;;;;13.27;8.57;;;11.70;91.10;;;;;;6254331;28;20094;-80
2021/10/26 07:18:16;;;;;;;18.15;9.20;;;11.80;91.10;;;;;;6252117;28;20090;-82
2021/10/26 07:21:18;;;;;;;23.10;9.82;;;11.80;91.20;;;;;;6249817;28;20038;-81
2021/10/26 07:24:20;;;;;;;19.45;8.90;;;11.90;91.20;;;;;;6253249;28;20175;-81
2021/10/26 07:27:23;;;;;;;22.02;8.88;;;12.00;91.30;;;;;;6253793;28;20043;-79
2021/10/26 07:30:28;;;;;;;16.85;8.15;;;12.20;91.30;;;;;;6248559;28;20064;-81
2021/10/26 07:33:32;;;;;;;20.63;7.53;;;12.30;91.30;;;;;;6261221;28;20545;-83
2021/10/26 07:36:41;;;;;;;12.73;6.97;;;12.40;91.20;;;;;;6273075;28;20048;-80
2021/10/26 07:39:47;;;;;;;17.27;7.93;;;12.60;91.20;;;;;;6273961;28;20049;-81
2021/10/26 07:42:50;;;;;;;16.20;7.65;;;12.70;91.10;;;;;;6274841;28;20108;-81
2021/10/26 07:45:52;;;;;;;18.75;7.53;;;12.80;90.90;;;;;;6274228;28;20586;-82
2021/10/26 07:48:54;;;;;;;16.80;7.25;;;13.10;90.90;;;;;;6273781;28;20045;-80
2021/10/26 07:51:57;;;;;;;16.38;7.85;;;13.30;90.70;;;;;;6275405;28;20043;-82
2021/10/26 07:54:59;;;;;;;16.52;7.45;;;13.40;90.40;;;;;;6274910;28;20060;-81
2021/10/26 07:58:02;;;;;;;18.60;8.40;;;13.50;90.20;;;;;;6259798;28;20045;-81
2021/10/26 08:01:04;;;;;;;19.27;9.05;;;13.60;90.00;;;;;;6249516;28;20045;-81
2021/10/26 08:04:06;;;;;;;14.05;8.45;;;13.60;89.20;;;;;;6250584;28;20469;-80
2021/10/26 08:07:08;;;;;;;14.18;7.03;;;13.60;88.60;;;;;;6253965;28;20248;-81
2021/10/26 08:10:10;;;;;;;13.27;8.05;;;13.50;88.60;;;;;;6252294;28;20196;-81
2021/10/26 08:13:13;;;;;;;14.90;7.10;;;13.60;88.80;;;;;;6254611;28;20046;-80
2021/10/26 08:16:15;;;;;;;11.98;6.50;;;13.80;89.10;;;;;;6258895;28;20049;-81
2021/10/26 08:19:17;;;;;;;94.13;61.60;;;14.20;88.80;;;;;;6256823;28;20064;-79
2021/10/26 08:22:20;;;;;;;310.48;144.90;;;14.50;87.30;;;;;;6258559;28;20045;-81
2021/10/26 08:25:24;;;;;;;44.30;23.00;;;14.70;85.90;;;;;;6254355;28;20180;-80
2021/10/26 08:28:27;;;;;;;55.45;30.60;;;14.70;84.90;;;;;;6253711;28;20084;-79
2021/10/26 08:31:35;;;;;;;18.70;9.18;;;14.60;83.50;;;;;;6256274;28;20045;-81
2021/10/26 08:34:45;;;;;;;31.38;20.48;;;14.40;83.80;;;;;;6252584;28;20061;-81
2021/10/26 08:37:48;;;;;;;16.30;8.98;;;14.40;84.40;;;;;;6254356;28;20041;-82
2021/10/26 08:40:50;;;;;;;19.50;10.52;;;14.40;84.40;;;;;;6253452;28;20041;-81
2021/10/26 08:43:54;;;;;;;11.15;7.05;;;14.40;84.10;;;;;;6254873;28;20678;-81
2021/10/26 08:46:56;;;;;;;15.63;8.30;;;14.40;83.80;;;;;;6229464;28;20120;-81
2021/10/26 08:49:58;;;;;;;16.05;6.90;;;14.30;84.00;;;;;;6229493;28;20074;-81
2021/10/26 08:53:00;;;;;;;18.92;10.10;;;14.20;83.90;;;;;;6228674;28;20056;-79
2021/10/26 08:56:04;;;;;;;15.32;6.82;;;14.20;84.30;;;;;;6239321;28;20045;-81
2021/10/26 08:59:08;;;;;;;13.63;7.07;;;14.20;84.10;;;;;;6278280;28;20127;-79
2021/10/26 09:02:10;;;;;;;13.05;7.45;;;14.20;84.40;;;;;;6278120;28;20519;-80
2021/10/26 09:05:14;;;;;;;11.85;6.82;;;14.20;84.60;;;;;;6278653;28;20124;-81
2021/10/26 09:08:21;;;;;;;20.55;8.20;;;14.20;84.60;;;;;;6277910;28;20047;-81
2021/10/26 09:11:26;;;;;;;13.52;6.55;;;14.20;84.50;;;;;;6279736;28;20707;-81
2021/10/26 09:17:48;;;;;;;16.08;6.97;;;14.10;84.50;;;;;;6281845;28;20120;-81
2021/10/26 09:20:51;;;;;;;17.55;7.43;;;14.10;84.70;;;;;;6281581;28;20065;-80
2021/10/26 09:23:55;;;;;;;15.60;6.90;;;14.10;84.80;;;;;;6279649;28;20052;-80
2021/10/26 09:27:00;;;;;;;10.02;6.40;;;14.10;85.00;;;;;;6255439;28;20522;-79
2021/10/26 09:30:07;;;;;;;15.48;6.68;;;14.00;84.90;;;;;;6273287;28;20052;-81
2021/10/26 09:33:09;;;;;;;12.40;7.30;;;13.90;85.00;;;;;;6285875;28;20049;-82
2021/10/26 09:36:29;;;;;;;13.57;6.55;;;13.90;85.30;;;;;;6282869;28;20056;-78
2021/10/26 09:39:31;;;;;;;16.35;6.78;;;14.00;85.70;;;;;;6277683;28;20646;-81
2021/10/26 09:42:41;;;;;;;12.88;6.43;;;14.10;85.80;;;;;;6278393;28;20052;-79
2021/10/26 09:45:44;;;;;;;13.05;7.05;;;14.20;85.80;;;;;;6277288;28;20049;-81
2021/10/26 09:48:46;;;;;;;13.48;7.45;;;14.30;85.80;;;;;;6276454;28;20135;-81
2021/10/26 09:51:50;;;;;;;10.23;6.38;;;14.50;85.80;;;;;;6279793;28;20088;-81
2021/10/26 09:55:11;;;;;;;15.77;6.53;;;14.60;85.20;;;;;;6278660;28;20132;-80
2021/10/26 09:58:15;;;;;;;11.85;6.68;;;14.70;84.90;;;;;;6270518;28;20044;-79
2021/10/26 10:01:26;;;;;;;8.57;5.65;;;14.70;84.80;;;;;;6278690;28;20055;-80
2021/10/26 10:04:31;;;;;;;9.93;6.10;;;14.70;84.40;;;;;;6280213;28;20473;-80
2021/10/26 10:07:35;;;;;;;10.15;6.47;;;14.70;83.70;;;;;;6281287;28;20511;-80
2021/10/26 10:10:39;;;;;;;14.75;6.30;;;14.60;83.30;;;;;;6280833;28;20076;-78
2021/10/26 10:13:42;;;;;;;11.80;6.25;;;14.50;83.40;;;;;;6280242;28;20179;-78
2021/10/26 10:16:45;;;;;;;10.75;5.85;;;14.40;83.30;;;;;;6280672;28;20131;-78
2021/10/26 10:19:47;;;;;;;9.35;4.90;;;14.40;83.40;;;;;;6280796;28;20048;-79
2021/10/26 10:22:49;;;;;;;12.25;6.55;;;14.30;83.60;;;;;;6286716;28;20045;-80
2021/10/26 10:25:53;;;;;;;11.50;5.20;;;14.30;83.60;;;;;;6283294;28;20040;-79
2021/10/26 10:28:56;;;;;;;10.48;5.57;;;14.30;83.60;;;;;;6282590;28;20060;-79
2021/10/26 10:31:59;;;;;;;11.30;5.32;;;14.30;83.80;;;;;;6283075;28;20056;-80
2021/10/26 10:35:06;;;;;;;11.45;5.03;;;14.40;84.10;;;;;;6288790;28;20113;-80
2021/10/26 10:38:08;;;;;;;13.82;6.85;;;14.50;83.50;;;;;;6281475;28;20112;-80
2021/10/26 10:41:26;;;;;;;12.27;6.32;;;14.50;82.90;;;;;;6278967;28;20522;-81
2021/10/26 10:44:36;;;;;;;38.70;17.40;;;14.60;82.80;;;;;;6281343;28;20044;-82
2021/10/26 10:47:42;;;;;;;77.53;34.60;;;14.60;82.80;;;;;;6281938;28;20045;-80
2021/10/26 10:50:44;;;;;;;9.43;5.53;;;14.60;83.10;;;;;;6281169;28;20095;-82
2021/10/26 10:53:46;;;;;;;28.52;12.15;;;14.80;83.00;;;;;;6283033;28;20064;-80
2021/10/26 10:57:15;;;;;;;32.58;11.45;;;15.00;82.80;;;;;;6280899;28;20124;-80
2021/10/26 11:00:24;;;;;;;7.07;3.75;;;15.20;81.50;;;;;;6282408;28;20124;-82
2021/10/26 11:03:31;;;;;;;15.23;6.30;;;15.50;80.90;;;;;;6285415;28;20048;-82
2021/10/26 11:06:56;;;;;;;205.02;79.80;;;15.60;80.00;;;;;;6283551;28;20047;-82
2021/10/26 11:09:58;;;;;;;11.55;3.97;;;15.60;80.10;;;;;;6282702;28;20507;-81
2021/10/26 11:13:17;;;;;;;168.43;69.65;;;15.60;78.80;;;;;;6288982;28;20136;-82
2021/10/26 11:16:34;;;;;;;51.97;21.02;;;15.60;79.00;;;;;;6287841;28;20506;-80
2021/10/26 11:19:46;;;;;;;10.77;6.23;;;15.70;78.80;;;;;;6286270;28;20048;-82
2021/10/26 11:22:52;;;;;;;56.80;23.60;;;15.70;79.10;;;;;;6285890;28;20311;-82
2021/10/26 11:26:04;;;;;;;65.63;30.63;;;15.70;79.30;;;;;;6286536;28;20045;-81
2021/10/26 11:29:08;;;;;;;8.20;4.45;;;15.70;79.10;;;;;;6282957;28;20048;-81
2021/10/26 11:32:15;;;;;;;9.10;4.22;;;15.70;79.20;;;;;;6282215;28;20055;-79
2021/10/26 11:35:22;;;;;;;7.50;4.00;;;15.70;79.30;;;;;;6282688;28;20132;-81
2021/10/26 11:38:25;;;;;;;6.22;3.33;;;15.70;79.20;;;;;;6291598;28;20322;-81
2021/10/26 11:41:28;;;;;;;9.13;3.50;;;15.70;78.80;;;;;;6282113;28;20053;-81
2021/10/26 11:44:31;;;;;;;12.98;7.10;;;15.80;78.60;;;;;;6280761;28;20049;-80
2021/10/26 11:47:41;;;;;;;18.92;9.88;;;15.80;78.30;;;;;;6285856;28;20080;-82
2021/10/26 11:50:45;;;;;;;49.40;22.88;;;16.10;78.00;;;;;;6284381;28;20052;-81
2021/10/26 11:53:47;;;;;;;20.70;10.48;;;16.20;77.40;;;;;;6289489;28;20053;-81
2021/10/26 11:56:50;;;;;;;19.02;8.50;;;16.40;76.50;;;;;;6289462;28;20045;-83
2021/10/26 12:00:02;;;;;;;3.35;2.45;;;16.70;76.20;;;;;;6286400;28;20112;-81
2021/10/26 12:03:04;;;;;;;4.32;2.15;;;16.90;74.40;;;;;;6261787;28;20045;-80
2021/10/26 12:06:07;;;;;;;6.05;2.83;;;16.90;73.60;;;;;;6283111;28;20045;-82
2021/10/26 12:09:12;;;;;;;6.18;2.20;;;16.90;74.00;;;;;;6286715;28;20136;-80
2021/10/26 12:12:17;;;;;;;3.78;2.10;;;17.00;73.00;;;;;;6285000;28;20053;-81
2021/10/26 12:15:19;;;;;;;9.65;2.63;;;17.00;72.60;;;;;;6285796;28;20049;-82
2021/10/26 12:18:33;;;;;;;2.90;2.05;;;16.90;73.50;;;;;;6287811;28;20041;-81
2021/10/26 12:21:36;;;;;;;3.60;1.90;;;16.80;73.40;;;;;;6288745;28;20045;-82
2021/10/26 12:24:38;;;;;;;4.68;2.33;;;16.70;73.70;;;;;;6289904;28;20080;-82
2021/10/26 12:27:41;;;;;;;7.57;2.53;;;17.00;73.80;;;;;;6289192;28;20053;-82
2021/10/26 12:30:46;;;;;;;5.25;2.85;;;17.30;72.80;;;;;;6288037;28;20148;-81
2021/10/26 12:34:00;;;;;;;7.18;2.03;;;17.50;72.10;;;;;;6287599;28;20072;-80
2021/10/26 12:37:32;;;;;;;6.10;2.22;;;17.70;71.40;;;;;;6293613;28;20133;-83
2021/10/26 12:40:41;;;;;;;7.10;2.65;;;18.10;70.00;;;;;;6281112;28;20076;-80
2021/10/26 12:43:44;;;;;;;4.85;2.35;;;18.20;69.10;;;;;;6283948;28;20193;-81
2021/10/26 12:47:03;;;;;;;9.80;1.75;;;18.10;68.50;;;;;;6284009;28;20446;-82
2021/10/26 12:50:06;;;;;;;5.82;2.20;;;18.00;69.00;;;;;;6287312;28;20045;-81
2021/10/26 12:53:37;;;;;;;6.18;3.13;;;17.90;69.40;;;;;;6285618;28;20076;-81
2021/10/26 12:56:46;;;;;;;4.57;2.08;;;17.80;69.10;;;;;;6270992;28;20044;-82
2021/10/26 12:59:48;;;;;;;10.02;2.10;;;17.80;69.30;;;;;;6283968;28;20469;-81
2021/10/26 13:02:50;;;;;;;3.65;1.45;;;18.00;68.80;;;;;;6280242;28;20064;-80
2021/10/26 13:05:52;;;;;;;4.95;1.73;;;18.40;67.30;;;;;;6274717;28;20048;-80
2021/10/26 13:08:55;;;;;;;5.20;1.70;;;18.70;66.00;;;;;;6286576;28;20045;-82
2021/10/26 13:15:07;;;;;;;3.83;1.10;;;19.40;64.10;;;;;;6247558;28;20053;-85
2021/10/26 13:18:11;;;;;;;2.35;1.17;;;19.90;63.00;;;;;;6287067;28;20793;-85
2021/10/26 13:21:16;;;;;;;4.20;1.02;;;20.30;61.00;;;;;;6299936;28;20067;-86
2021/10/26 13:24:21;;;;;;;3.47;1.75;;;20.50;61.10;;;;;;6299423;28;20106;-85
2021/10/26 13:27:23;;;;;;;3.63;1.23;;;20.90;59.50;;;;;;6300519;28;20053;-82
2021/10/26 13:30:25;;;;;;;6.22;1.23;;;20.90;59.00;;;;;;6309551;28;20539;-86
2021/10/26 13:33:28;;;;;;;5.55;1.20;;;21.20;58.80;;;;;;6309214;28;20072;-84
2021/10/26 13:36:33;;;;;;;8.05;0.98;;;21.60;57.10;;;;;;6308602;28;20048;-85
2021/10/26 13:39:36;;;;;;;5.45;1.20;;;21.70;56.00;;;;;;6293193;28;20048;-85
2021/10/26 13:42:38;;;;;;;4.25;1.23;;;21.80;55.60;;;;;;6278708;28;20051;-85
2021/10/26 13:45:40;;;;;;;4.20;1.45;;;22.00;56.30;;;;;;6276995;28;20395;-85
2021/10/26 13:48:42;;;;;;;3.10;1.40;;;22.30;55.80;;;;;;6276607;28;20457;-84
2021/10/26 13:51:44;;;;;;;6.20;1.00;;;22.70;54.40;;;;;;6275261;28;20520;-85
2021/10/26 13:54:47;;;;;;;2.40;0.80;;;22.90;52.80;;;;;;6274565;28;20045;-83
2021/10/26 13:57:49;;;;;;;2.55;0.98;;;22.40;52.00;;;;;;6287734;28;20074;-83
2021/10/26 14:00:52;;;;;;;5.40;0.80;;;21.90;53.00;;;;;;6301629;28;20375;-83
2021/10/26 14:03:54;;;;;;;2.58;0.73;;;21.30;54.60;;;;;;6287987;28;20410;-84
2021/10/26 14:06:56;;;;;;;1.95;0.60;;;20.90;54.60;;;;;;6301488;28;20050;-84
2021/10/26 14:09:59;;;;;;;1.35;0.80;;;20.20;53.70;;;;;;6303809;28;20086;-84
2021/10/26 14:13:01;;;;;;;1.38;1.13;;;19.60;54.60;;;;;;6304253;28;20064;-83
2021/10/26 14:16:03;;;;;;;3.30;0.65;;;19.20;55.70;;;;;;6305402;28;20066;-83
2021/10/26 14:19:05;;;;;;;2.78;0.50;;;18.80;56.70;;;;;;6304175;28;20437;-84
2021/10/26 14:22:06;;;;;;;1.00;0.45;;;18.50;57.30;;;;;;6304295;28;20660;-84
2021/10/26 14:25:11;;;;;;;2.42;0.50;;;18.40;57.80;;;;;;6304689;28;20576;-84
2021/10/26 14:28:12;;;;;;;3.08;0.60;;;18.20;58.30;;;;;;6288632;28;20049;-83
2021/10/26 14:31:17;;;;;;;2.72;0.47;;;18.20;58.50;;;;;;6279714;28;20140;-84
2021/10/26 14:34:20;;;;;;;1.02;0.63;;;18.20;58.00;;;;;;6278322;28;20041;-84
2021/10/26 14:37:32;;;;;;;0.98;0.50;;;18.20;58.20;;;;;;6280995;28;20106;-84
2021/10/26 14:40:46;;;;;;;1.45;0.73;;;18.40;58.20;;;;;;6299804;28;20045;-84
2021/10/26 14:54:06;;;;;;;2.40;0.50;;;18.00;58.50;;;;;;6305313;28;20468;-84
2021/10/26 14:57:10;;;;;;;0.85;0.40;;;18.00;58.40;;;;;;6298140;28;20128;-86
2021/10/26 15:00:13;;;;;;;4.88;0.43;;;17.90;58.90;;;;;;6299406;28;20480;-87
2021/10/26 15:03:15;;;;;;;0.63;0.40;;;17.80;59.50;;;;;;6300129;28;20127;-85
2021/10/26 15:06:21;;;;;;;0.82;0.20;;;17.70;60.00;;;;;;6297515;28;20170;-86
2021/10/26 15:09:41;;;;;;;2.92;0.57;;;17.60;60.50;;;;;;6298133;28;20513;-86
2021/10/26 15:12:56;;;;;;;1.00;0.40;;;17.50;60.50;;;;;;6297799;28;20056;-86
2021/10/26 15:15:58;;;;;;;2.78;0.55;;;17.50;60.70;;;;;;6299221;28;20096;-86
2021/10/26 15:19:02;;;;;;;0.60;0.35;;;17.50;60.90;;;;;;6297740;28;20412;-86
2021/10/26 15:22:11;;;;;;;2.22;0.50;;;17.40;61.30;;;;;;6300674;28;20097;-85
2021/10/26 15:25:37;;;;;;;3.22;0.70;;;17.30;61.80;;;;;;6300456;28;20041;-86
2021/10/26 15:35:40;;;;;;;3.05;1.02;;;16.80;63.80;;;;;;6277254;28;20052;-86
2021/10/26 15:38:43;;;;;;;3.38;0.70;;;16.60;64.50;;;;;;6276806;28;20049;-87
2021/10/26 15:41:58;;;;;;;3.30;0.98;;;16.40;65.40;;;;;;6281023;28;20193;-87
2021/10/26 15:45:03;;;;;;;3.08;0.60;;;16.20;66.00;;;;;;6294911;28;20070;-87
2021/10/26 15:51:55;;;;;;;2.33;1.00;;;15.80;67.90;;;;;;6301260;28;20048;-86
2021/10/26 15:54:56;;;;;;;3.13;0.93;;;15.50;68.50;;;;;;6302276;28;20049;-85
2021/10/26 15:57:59;;;;;;;1.55;0.68;;;15.30;69.00;;;;;;6286349;28;20060;-86
2021/10/26 16:01:02;;;;;;;4.13;1.00;;;15.20;69.70;;;;;;6301369;28;20059;-86
2021/10/26 16:04:05;;;;;;;2.42;0.80;;;15.00;70.60;;;;;;6304021;28;20108;-87
2021/10/26 16:07:07;;;;;;;1.85;0.77;;;14.80;71.50;;;;;;6305757;28;20044;-85
2021/10/26 16:10:12;;;;;;;1.90;0.93;;;14.50;72.30;;;;;;6305176;28;20076;-86
2021/10/26 16:13:19;;;;;;;1.60;0.60;;;14.40;73.20;;;;;;6304866;28;20067;-85
2021/10/26 16:16:25;;;;;;;2.72;0.70;;;14.20;73.90;;;;;;6306721;28;20044;-84